Roslyn, South Dakota
Current Conditions -  °F | °C
As of 11:53 PM on Monday 26 Jan 2015 (Local Time) from KATY Reporting Station
Clear Clear  
Wind Chill: 27°   Ceiling: Unl
Heat Index: 27°   Visibility: 10mi
Dew Point: 25°   Wind: 0mph
Humidity: 92%   Direction: NA
Pressure: 30.01"   Gusts: NA
Location:  45.5°N, 97.49°W
Report Text: KATY 270553Z AUTO 00000KT 10SM CLR M03/M04 A3001 RMK AO2 SLP179 I1000 I6000 T10281039 10028 21028 400561028 50010
Loading
Personal Weather Stations






























Interactive Weather Map New forecast layout! Learn more

10-Day Weather Forecast

Advertisements
Track Severe Weather on mobile